Wetterstation Vordersexau
Wetterdaten: Woche 04.02.13 - 10.02.13 (KW6)
Datum Zeit Temp. A. Feuchte A. Luftdruck Regen Wind Richtung Taupunkt Windchill Windben
04.02.2013 00:00 0,8 C 86 % 1018,2 hPa 0,0 l/m 24,0 km/h W-SW -1,3 C -10,3 C 13,3 km/h
04.02.2013 01:00 1,5 C 85 % 1018,0 hPa 0,0 l/m 16,8 km/h W-SW -0,7 C -6,2 C 9,4 km/h
04.02.2013 02:00 0,9 C 86 % 1017,5 hPa 0,0 l/m 25,9 km/h W-SW -1,2 C -10,8 C 14,4 km/h
04.02.2013 03:00 1,1 C 86 % 1016,6 hPa 0,0 l/m 7,8 km/h W-SW -1,0 C -0,3 C 4,3 km/h
04.02.2013 04:00 0,9 C 85 % 1016,5 hPa 0,0 l/m 20,1 km/h W -1,3 C -8,5 C 11,2 km/h
04.02.2013 05:00 1,2 C 84 % 1015,8 hPa 0,5 l/m 24,6 km/h W-SW -1,2 C -9,9 C 13,7 km/h
04.02.2013 06:00 1,7 C 85 % 1015,4 hPa 0,5 l/m 15,6 km/h W-SW -0,5 C -5,3 C 8,6 km/h
04.02.2013 07:00 2,9 C 86 % 1015,0 hPa 0,5 l/m 31,8 km/h W 0,8 C -9,8 C 17,6 km/h
04.02.2013 08:00 3,4 C 84 % 1015,3 hPa 0,0 l/m 18,8 km/h W 1,0 C -4,7 C 10,4 km/h
04.02.2013 09:00 3,6 C 85 % 1015,5 hPa 0,0 l/m 20,7 km/h W-NW 1,3 C -5,3 C 11,5 km/h
04.02.2013 10:00 4,1 C 85 % 1015,6 hPa 0,0 l/m 17,5 km/h W-NW 1,8 C -3,2 C 9,7 km/h
04.02.2013 11:00 5,0 C 85 % 1016,0 hPa 0,0 l/m 31,1 km/h NW 2,7 C -6,7 C 17,3 km/h
04.02.2013 12:00 5,8 C 84 % 1015,7 hPa 0,0 l/m 25,3 km/h W-NW 3,3 C -4,0 C 14,0 km/h
04.02.2013 13:00 5,6 C 84 % 1015,4 hPa 0,0 l/m 42,1 km/h W 3,1 C -8,0 C 23,4 km/h
04.02.2013 14:00 6,1 C 84 % 1015,1 hPa 0,0 l/m 25,9 km/h W 3,6 C -3,7 C 14,4 km/h
04.02.2013 15:00 6,5 C 85 % 1015,0 hPa 0,0 l/m 20,7 km/h W 4,2 C -1,5 C 11,5 km/h
04.02.2013 16:00 6,8 C 85 % 1015,1 hPa 0,0 l/m 22,0 km/h W-NW 4,5 C -1,6 C 12,2 km/h
04.02.2013 17:00 7,1 C 85 % 1014,8 hPa 0,0 l/m 6,5 km/h NW 4,8 C 7,0 C 3,6 km/h
04.02.2013 18:00 7,5 C 84 % 1014,8 hPa 0,0 l/m 16,2 km/h W-NW 5,0 C 1,6 C 9,0 km/h
04.02.2013 19:00 7,6 C 84 % 1014,5 hPa 0,0 l/m 26,6 km/h W 5,1 C -1,9 C 14,8 km/h
04.02.2013 20:00 7,6 C 85 % 1014,5 hPa 0,0 l/m 36,3 km/h W-NW 5,2 C -4,0 C 20,2 km/h
04.02.2013 21:00 7,6 C 85 % 1014,4 hPa 0,0 l/m 43,4 km/h NW 5,2 C -5,2 C 24,1 km/h
04.02.2013 22:00 7,5 C 85 % 1014,7 hPa 0,0 l/m 30,5 km/h W-NW 5,1 C -3,0 C 16,9 km/h
04.02.2013 23:00 7,5 C 85 % 1014,3 hPa 0,0 l/m 20,7 km/h W-NW 5,1 C -0,2 C 11,5 km/h
05.02.2013 00:00 7,3 C 85 % 1013,6 hPa 0,0 l/m 16,8 km/h W-NW 4,9 C 1,1 C 9,4 km/h
05.02.2013 01:00 7,6 C 85 % 1013,0 hPa 0,0 l/m 29,2 km/h NW 5,2 C -2,5 C 16,2 km/h
05.02.2013 02:00 7,8 C 83 % 1012,3 hPa 0,0 l/m 27,9 km/h W 5,1 C -1,9 C 15,5 km/h
05.02.2013 03:00 8,1 C 82 % 1011,2 hPa 0,0 l/m 19,4 km/h W 5,2 C 1,0 C 10,8 km/h
05.02.2013 04:00 7,9 C 82 % 1009,8 hPa 0,0 l/m 20,7 km/h W-NW 5,0 C 0,3 C 11,5 km/h
05.02.2013 05:00 7,6 C 84 % 1008,5 hPa 0,0 l/m 18,8 km/h NW 5,1 C 0,6 C 10,4 km/h
05.02.2013 06:00 7,4 C 85 % 1007,4 hPa 0,0 l/m 24,6 km/h NW 5,0 C -1,6 C 13,7 km/h
05.02.2013 07:00 7,0 C 85 % 1007,1 hPa 0,0 l/m 27,9 km/h W-NW 4,7 C -3,0 C 15,5 km/h
05.02.2013 08:00 6,6 C 83 % 1007,3 hPa 0,0 l/m 29,2 km/h NW 3,9 C -3,9 C 16,2 km/h
05.02.2013 09:00 6,6 C 81 % 1007,2 hPa 0,0 l/m 18,8 km/h NW 3,6 C -0,6 C 10,4 km/h
05.02.2013 10:00 6,9 C 79 % 1006,4 hPa 0,0 l/m 14,3 km/h NW 3,5 C 1,7 C 7,9 km/h
05.02.2013 11:00 6,2 C 81 % 1006,1 hPa 0,5 l/m 50,5 km/h W-NW 3,2 C -8,2 C 28,1 km/h
05.02.2013 12:00 5,9 C 78 % 1005,2 hPa 0,0 l/m 39,5 km/h NW 2,4 C -7,1 C 22,0 km/h
05.02.2013 13:00 6,3 C 79 % 1003,8 hPa 0,0 l/m 52,5 km/h N-NO 2,9 C -8,3 C 29,2 km/h
05.02.2013 14:00 0,8 C 85 % 1004,5 hPa 0,0 l/m 0,0 km/h S-SW -1,4 C 0,8 C 0,0 km/h
05.02.2013 15:00 0,4 C 86 % 1003,0 hPa 0,0 l/m 0,0 km/h W-SW -1,7 C 0,4 C 0,0 km/h
05.02.2013 16:00 0,9 C 85 % 1002,5 hPa 0,0 l/m 0,6 km/h SW -1,3 C 0,9 C 0,4 km/h
05.02.2013 17:00 1,3 C 85 % 1001,0 hPa 0,0 l/m 0,0 km/h N-NO -0,9 C 1,3 C 0,0 km/h
05.02.2013 18:00 0,9 C 84 % 1001,1 hPa 0,0 l/m 0,0 km/h NW -1,5 C 0,9 C 0,0 km/h
05.02.2013 19:00 1,4 C 85 % 1000,9 hPa 0,5 l/m 13,6 km/h W-NW -0,8 C -4,4 C 7,6 km/h
05.02.2013 20:00 1,8 C 86 % 1000,8 hPa 1,6 l/m 22,0 km/h W -0,3 C -8,1 C 12,2 km/h
05.02.2013 21:00 1,9 C 86 % 1001,4 hPa 0,5 l/m 8,4 km/h W-NW -0,2 C -0,0 C 4,7 km/h
05.02.2013 22:00 2,1 C 86 % 1001,9 hPa 1,0 l/m 21,4 km/h NW 0,0 C -7,5 C 11,9 km/h
05.02.2013 23:00 1,8 C 86 % 1001,9 hPa 0,5 l/m 27,2 km/h NW -0,3 C -10,0 C 15,1 km/h
06.02.2013 00:00 1,4 C 86 % 1001,7 hPa 0,0 l/m 2,6 km/h NW -0,7 C 1,4 C 1,4 km/h
06.02.2013 01:00 1,4 C 85 % 1001,6 hPa 0,5 l/m 25,9 km/h NW -0,8 C -10,1 C 14,4 km/h
06.02.2013 02:00 1,3 C 84 % 1001,1 hPa 0,0 l/m 18,8 km/h W -1,1 C -7,4 C 10,4 km/h
06.02.2013 03:00 1,1 C 84 % 1000,7 hPa 0,0 l/m 17,5 km/h W-NW -1,3 C -7,0 C 9,7 km/h
06.02.2013 04:00 1,5 C 81 % 999,6 hPa 0,5 l/m 21,4 km/h W-NW -1,4 C -8,3 C 11,9 km/h
06.02.2013 05:00 1,9 C 79 % 998,3 hPa 0,0 l/m 18,8 km/h W-NW -1,3 C -6,6 C 10,4 km/h
06.02.2013 06:00 1,9 C 78 % 997,5 hPa 0,0 l/m 23,3 km/h W-SW -1,5 C -8,5 C 13,0 km/h
06.02.2013 07:00 2,5 C 72 % 996,6 hPa 0,0 l/m 24,0 km/h W-NW -2,0 C -8,0 C 13,3 km/h
06.02.2013 08:00 2,4 C 72 % 996,0 hPa 0,5 l/m 20,1 km/h W-NW -2,1 C -6,6 C 11,2 km/h
06.02.2013 09:00 2,7 C 73 % 995,6 hPa 0,0 l/m 34,3 km/h NW -1,6 C -10,7 C 19,1 km/h
06.02.2013 10:00 2,3 C 76 % 995,3 hPa 0,5 l/m 21,4 km/h W-NW -1,5 C -7,2 C 11,9 km/h
06.02.2013 11:00 2,8 C 77 % 995,2 hPa 0,5 l/m 16,8 km/h W -0,8 C -4,5 C 9,4 km/h
06.02.2013 12:00 2,6 C 81 % 994,9 hPa 0,5 l/m 33,0 km/h NW -0,3 C -10,5 C 18,4 km/h
06.02.2013 13:00 1,9 C 85 % 994,9 hPa 0,5 l/m 22,0 km/h W-NW -0,3 C -8,0 C 12,2 km/h
06.02.2013 14:00 2,3 C 86 % 994,9 hPa 1,0 l/m 11,7 km/h NW 0,2 C -2,1 C 6,5 km/h
06.02.2013 15:00 2,7 C 86 % 995,0 hPa 0,5 l/m 10,4 km/h NW 0,6 C -0,8 C 5,8 km/h
06.02.2013 16:00 2,3 C 86 % 995,3 hPa 0,5 l/m 17,5 km/h NW 0,2 C -5,5 C 9,7 km/h
06.02.2013 17:00 1,8 C 86 % 996,2 hPa 0,5 l/m 3,2 km/h NW -0,3 C 1,8 C 1,8 km/h
06.02.2013 18:00 0,8 C 84 % 997,4 hPa 1,0 l/m 1,9 km/h NW -1,6 C 0,8 C 1,1 km/h
06.02.2013 19:00 0,8 C 83 % 998,5 hPa 1,0 l/m 0,0 km/h NW -1,8 C 0,8 C 0,0 km/h
06.02.2013 20:00 0,2 C 82 % 999,3 hPa 0,0 l/m 0,0 km/h N-NW -2,5 C 0,2 C 0,0 km/h
06.02.2013 21:00 0,1 C 81 % 1000,4 hPa 0,0 l/m 0,0 km/h N-NW -2,8 C 0,1 C 0,0 km/h
06.02.2013 22:00 0,1 C 80 % 1001,3 hPa 0,0 l/m 0,0 km/h N-NW -2,9 C 0,1 C 0,0 km/h
06.02.2013 23:00 0,1 C 79 % 1002,1 hPa 0,0 l/m 0,0 km/h N-NW -3,1 C 0,1 C 0,0 km/h
07.02.2013 00:00 0,2 C 79 % 1003,0 hPa 0,0 l/m 0,0 km/h N-NO -3,0 C 0,2 C 0,0 km/h
07.02.2013 01:00 0,2 C 77 % 1003,9 hPa 0,0 l/m 0,0 km/h NO -3,3 C 0,2 C 0,0 km/h
07.02.2013 02:00 0,2 C 76 % 1004,5 hPa 0,0 l/m 0,0 km/h O-NO -3,5 C 0,2 C 0,0 km/h
07.02.2013 03:00 0,2 C 76 % 1005,4 hPa 0,0 l/m 0,0 km/h O-NO -3,5 C 0,2 C 0,0 km/h
07.02.2013 04:00 -0,2 C 79 % 1006,1 hPa 0,0 l/m 0,0 km/h O-NO -3,4 C -0,2 C 0,0 km/h
07.02.2013 05:00 -1,4 C 80 % 1006,9 hPa 0,0 l/m 0,0 km/h O-NO -4,4 C -1,4 C 0,0 km/h
07.02.2013 06:00 -1,3 C 80 % 1007,4 hPa 0,0 l/m 0,0 km/h O-NO -4,3 C -1,3 C 0,0 km/h
07.02.2013 07:00 -0,6 C 80 % 1008,2 hPa 0,0 l/m 0,0 km/h O-NO -3,6 C -0,6 C 0,0 km/h
07.02.2013 08:00 -0,6 C 80 % 1009,1 hPa 0,0 l/m 0,0 km/h O-NO -3,6 C -0,6 C 0,0 km/h
07.02.2013 09:00 -0,1 C 79 % 1009,8 hPa 0,0 l/m 0,0 km/h O-NO -3,3 C -0,1 C 0,0 km/h
07.02.2013 10:00 0,5 C 77 % 1010,5 hPa 0,0 l/m 0,0 km/h NO -3,1 C 0,5 C 0,0 km/h
07.02.2013 11:00 1,5 C 84 % 1011,0 hPa 0,0 l/m 0,0 km/h N-NO -0,9 C 1,5 C 0,0 km/h
07.02.2013 12:00 5,8 C 84 % 1011,2 hPa 0,0 l/m 0,0 km/h N 3,3 C 5,8 C 0,0 km/h
07.02.2013 13:00 3,6 C 80 % 1011,0 hPa 1,0 l/m 0,0 km/h N-NW 0,5 C 3,6 C 0,0 km/h
07.02.2013 14:00 3,4 C 80 % 1010,8 hPa 1,0 l/m 0,0 km/h N-NW 0,3 C 3,4 C 0,0 km/h
07.02.2013 15:00 3,0 C 83 % 1010,9 hPa 1,0 l/m 9,7 km/h W-NW 0,4 C 0,1 C 5,4 km/h
07.02.2013 16:00 2,2 C 82 % 1010,7 hPa 1,0 l/m 0,0 km/h S-SW -0,5 C 2,2 C 0,0 km/h
07.02.2013 17:00 1,1 C 85 % 1010,9 hPa 0,5 l/m 0,0 km/h O-SO -1,1 C 1,1 C 0,0 km/h
07.02.2013 18:00 0,5 C 86 % 1011,2 hPa 0,5 l/m 0,0 km/h SW -1,6 C 0,5 C 0,0 km/h
07.02.2013 19:00 0,3 C 85 % 1011,5 hPa 0,0 l/m 3,9 km/h W-SW -1,9 C 0,3 C 2,2 km/h
07.02.2013 20:00 0,1 C 85 % 1011,3 hPa 0,0 l/m 0,0 km/h SO -2,1 C 0,1 C 0,0 km/h
07.02.2013 21:00 0,1 C 84 % 1011,4 hPa 0,0 l/m 0,0 km/h N-NW -2,3 C 0,1 C 0,0 km/h
07.02.2013 22:00 0,1 C 83 % 1011,2 hPa 0,0 l/m 0,0 km/h N-NW -2,4 C 0,1 C 0,0 km/h
07.02.2013 23:00 0,1 C 83 % 1011,1 hPa 0,0 l/m 0,0 km/h N-NW -2,4 C 0,1 C 0,0 km/h
08.02.2013 00:00 0,1 C 82 % 1011,1 hPa 0,0 l/m 0,0 km/h NW -2,6 C 0,1 C 0,0 km/h
08.02.2013 01:00 0,1 C 81 % 1010,7 hPa 0,0 l/m 0,0 km/h NW -2,8 C 0,1 C 0,0 km/h
08.02.2013 02:00 0,1 C 80 % 1010,7 hPa 0,0 l/m 0,0 km/h NW -2,9 C 0,1 C 0,0 km/h
08.02.2013 03:00 0,1 C 79 % 1010,5 hPa 0,0 l/m 0,0 km/h NW -3,1 C 0,1 C 0,0 km/h
08.02.2013 04:00 -0,1 C 79 % 1010,3 hPa 0,0 l/m 0,0 km/h NW -3,3 C -0,1 C 0,0 km/h
08.02.2013 05:00 -0,1 C 77 % 1010,1 hPa 0,0 l/m 0,0 km/h NW -3,6 C -0,1 C 0,0 km/h
08.02.2013 06:00 -0,1 C 77 % 1010,2 hPa 0,0 l/m 0,0 km/h NW -3,6 C -0,1 C 0,0 km/h
08.02.2013 07:00 -0,2 C 76 % 1010,6 hPa 0,0 l/m 0,0 km/h NW -3,9 C -0,2 C 0,0 km/h
08.02.2013 08:00 -0,2 C 75 % 1011,1 hPa 0,0 l/m 0,0 km/h NW -4,1 C -0,2 C 0,0 km/h
08.02.2013 09:00 0,8 C 72 % 1011,3 hPa 0,0 l/m 0,0 km/h N-NW -3,7 C 0,8 C 0,0 km/h
08.02.2013 10:00 2,6 C 69 % 1011,7 hPa 0,5 l/m 0,0 km/h N -2,5 C 2,6 C 0,0 km/h
08.02.2013 11:00 2,1 C 86 % 1012,0 hPa 0,0 l/m 0,0 km/h N-NW 0,0 C 2,1 C 0,0 km/h
08.02.2013 12:00 4,6 C 84 % 1011,9 hPa 0,5 l/m 0,0 km/h S 2,1 C 4,6 C 0,0 km/h
08.02.2013 13:00 6,7 C 75 % 1011,7 hPa 1,0 l/m 0,0 km/h S 2,6 C 6,7 C 0,0 km/h
08.02.2013 14:00 5,0 C 73 % 1011,5 hPa 1,0 l/m 0,0 km/h SO 0,6 C 5,0 C 0,0 km/h
08.02.2013 15:00 2,4 C 79 % 1011,5 hPa 0,5 l/m 0,0 km/h S-SO -0,9 C 2,4 C 0,0 km/h
08.02.2013 16:00 2,1 C 82 % 1011,8 hPa 0,5 l/m 0,0 km/h S -0,6 C 2,1 C 0,0 km/h
08.02.2013 17:00 0,4 C 83 % 1011,8 hPa 0,0 l/m 0,0 km/h NW -2,1 C 0,4 C 0,0 km/h
08.02.2013 18:00 0,2 C 85 % 1012,3 hPa 0,0 l/m 0,0 km/h W-NW -2,0 C 0,2 C 0,0 km/h
08.02.2013 19:00 -0,1 C 86 % 1012,5 hPa 0,0 l/m 0,0 km/h NO -2,2 C -0,1 C 0,0 km/h
08.02.2013 20:00 -0,1 C 86 % 1012,7 hPa 0,5 l/m 0,0 km/h N-NW -2,2 C -0,1 C 0,0 km/h
08.02.2013 21:00 -1,0 C 86 % 1012,9 hPa 0,0 l/m 0,0 km/h N-NW -3,0 C -1,0 C 0,0 km/h
08.02.2013 22:00 -0,7 C 85 % 1013,2 hPa 0,0 l/m 0,0 km/h NO -2,9 C -0,7 C 0,0 km/h
08.02.2013 23:00 -0,9 C 84 % 1013,6 hPa 0,0 l/m 0,0 km/h O-NO -3,3 C -0,9 C 0,0 km/h
09.02.2013 00:00 -1,4 C 85 % 1014,0 hPa 0,0 l/m 0,0 km/h O-NO -3,6 C -1,4 C 0,0 km/h
09.02.2013 01:00 -3,2 C 86 % 1014,2 hPa 0,0 l/m 0,0 km/h O -5,2 C -3,2 C 0,0 km/h
09.02.2013 02:00 -2,9 C 86 % 1014,4 hPa 0,0 l/m 0,0 km/h O -4,9 C -2,9 C 0,0 km/h
09.02.2013 03:00 -3,4 C 85 % 1014,4 hPa 0,0 l/m 0,0 km/h O -5,5 C -3,4 C 0,0 km/h
09.02.2013 04:00 -4,4 C 85 % 1014,4 hPa 0,0 l/m 0,0 km/h O -6,5 C -4,4 C 0,0 km/h
09.02.2013 05:00 -3,0 C 84 % 1014,7 hPa 0,0 l/m 0,0 km/h O -5,3 C -3,0 C 0,0 km/h
09.02.2013 06:00 -2,4 C 84 % 1014,8 hPa 0,0 l/m 0,0 km/h O -4,7 C -2,4 C 0,0 km/h
09.02.2013 07:00 -2,4 C 83 % 1015,3 hPa 0,0 l/m 0,0 km/h O -4,9 C -2,4 C 0,0 km/h
09.02.2013 08:00 -2,3 C 82 % 1015,9 hPa 0,0 l/m 0,0 km/h O -4,9 C -2,3 C 0,0 km/h
09.02.2013 09:00 -0,7 C 80 % 1016,3 hPa 0,0 l/m 0,0 km/h O -3,7 C -0,7 C 0,0 km/h
09.02.2013 10:00 5,6 C 82 % 1016,5 hPa 0,0 l/m 0,0 km/h N 2,8 C 5,6 C 0,0 km/h
09.02.2013 11:00 1,4 C 80 % 1016,7 hPa 0,0 l/m 0,0 km/h N-NW -1,7 C 1,4 C 0,0 km/h
09.02.2013 12:00 6,8 C 65 % 1016,7 hPa 0,5 l/m 1,9 km/h N 0,7 C 6,8 C 1,1 km/h
09.02.2013 13:00 3,0 C 67 % 1016,4 hPa 0,0 l/m 0,0 km/h W -2,5 C 3,0 C 0,0 km/h
09.02.2013 14:00 4,2 C 64 % 1016,1 hPa 0,5 l/m 0,0 km/h W -2,0 C 4,2 C 0,0 km/h
09.02.2013 15:00 1,6 C 70 % 1016,2 hPa 0,0 l/m 0,0 km/h SW -3,3 C 1,6 C 0,0 km/h
09.02.2013 16:00 6,2 C 63 % 1015,8 hPa 0,0 l/m 0,0 km/h S-SW -0,3 C 6,2 C 0,0 km/h
09.02.2013 17:00 -0,8 C 64 % 1015,8 hPa 0,5 l/m 0,0 km/h SO -6,7 C -0,8 C 0,0 km/h
09.02.2013 18:00 -4,7 C 80 % 1016,2 hPa 0,0 l/m 0,0 km/h S-SO -7,6 C -4,7 C 0,0 km/h
09.02.2013 19:00 -7,0 C 82 % 1016,5 hPa 0,0 l/m 0,0 km/h S -9,5 C -7,0 C 0,0 km/h
09.02.2013 20:00 -5,1 C 85 % 1016,4 hPa 0,0 l/m 3,2 km/h S -7,2 C -5,1 C 1,8 km/h
09.02.2013 21:00 -6,4 C 86 % 1016,2 hPa 0,0 l/m 2,6 km/h S -8,3 C -6,4 C 1,4 km/h
09.02.2013 22:00 -7,0 C 86 % 1016,1 hPa 0,0 l/m 0,0 km/h S -8,9 C -7,0 C 0,0 km/h
09.02.2013 23:00 -7,6 C 86 % 1015,8 hPa 0,0 l/m 1,9 km/h S-SO -9,5 C -7,6 C 1,1 km/h
10.02.2013 00:00 -8,2 C 86 % 1015,6 hPa 0,0 l/m 0,0 km/h S-SO -10,1 C -8,2 C 0,0 km/h
10.02.2013 01:00 -8,4 C 86 % 1015,2 hPa 0,0 l/m 2,6 km/h S -10,3 C -8,4 C 1,4 km/h
10.02.2013 02:00 -8,8 C 86 % 1015,1 hPa 0,0 l/m 1,9 km/h S -10,7 C -8,8 C 1,1 km/h
10.02.2013 03:00 -9,7 C 86 % 1015,0 hPa 0,0 l/m 0,0 km/h S -11,6 C -9,7 C 0,0 km/h
10.02.2013 04:00 -10,1 C 87 % 1014,5 hPa 0,0 l/m 0,0 km/h S -11,8 C -10,1 C 0,0 km/h
10.02.2013 05:00 -10,5 C 86 % 1014,0 hPa 0,0 l/m 0,6 km/h SO -12,4 C -10,5 C 0,4 km/h
10.02.2013 06:00 -10,4 C 86 % 1013,9 hPa 0,0 l/m 0,0 km/h SO -12,3 C -10,4 C 0,0 km/h
10.02.2013 07:00 -10,2 C 86 % 1013,7 hPa 0,0 l/m 0,0 km/h S -12,1 C -10,2 C 0,0 km/h
10.02.2013 08:00 -10,1 C 87 % 1013,3 hPa 0,0 l/m 0,0 km/h S-SO -11,8 C -10,1 C 0,0 km/h
10.02.2013 09:00 -5,9 C 86 % 1012,8 hPa 0,0 l/m 5,2 km/h S-SO -7,9 C -5,9 C 2,9 km/h
10.02.2013 10:00 -1,7 C 77 % 1012,2 hPa 0,0 l/m 9,7 km/h S -5,2 C -5,1 C 5,4 km/h
10.02.2013 11:00 3,8 C 65 % 1011,7 hPa 0,0 l/m 0,0 km/h S -2,2 C 3,8 C 0,0 km/h
10.02.2013 12:00 6,9 C 54 % 1010,7 hPa 0,0 l/m 0,0 km/h W -1,8 C 6,9 C 0,0 km/h
10.02.2013 13:00 6,3 C 50 % 1009,6 hPa 0,5 l/m 0,0 km/h N -3,3 C 6,3 C 0,0 km/h
10.02.2013 14:00 6,3 C 49 % 1008,2 hPa 0,0 l/m 0,6 km/h NO -3,6 C 6,3 C 0,4 km/h
10.02.2013 15:00 6,4 C 48 % 1007,3 hPa 0,5 l/m 0,0 km/h SW -3,8 C 6,4 C 0,0 km/h
10.02.2013 16:00 2,6 C 51 % 1006,5 hPa 0,5 l/m 3,9 km/h S-SW -6,5 C 2,6 C 2,2 km/h
10.02.2013 17:00 3,4 C 48 % 1005,3 hPa 0,0 l/m 0,0 km/h O-SO -6,5 C 3,4 C 0,0 km/h
10.02.2013 18:00 -3,7 C 70 % 1004,5 hPa 0,0 l/m 0,0 km/h SO -8,4 C -3,7 C 0,0 km/h
10.02.2013 19:00 -6,1 C 77 % 1003,9 hPa 0,0 l/m 0,0 km/h SO -9,5 C -6,1 C 0,0 km/h
10.02.2013 20:00 -7,6 C 81 % 1003,0 hPa 0,0 l/m 0,0 km/h S -10,3 C -7,6 C 0,0 km/h
10.02.2013 21:00 -8,2 C 83 % 1002,4 hPa 0,0 l/m 1,3 km/h SO -10,6 C -8,2 C 0,7 km/h
10.02.2013 22:00 -8,4 C 84 % 1001,7 hPa 0,0 l/m 0,0 km/h N-NO -10,6 C -8,4 C 0,0 km/h
10.02.2013 23:00 -5,6 C 85 % 1001,3 hPa 0,0 l/m 0,0 km/h SO -7,7 C -5,6 C 0,0 km/h
Min-Datum _ 10.02.13 10.02.13 06.02.13 - 05.02.13 - 10.02.13 04.02.13 05.02.13
_ Min-Zeit 05:19 15:19 12:19 - 14:19 - 05:19 02:19 14:19
Minimum _ -10,5 C 48 % 994,9 hPa - 0,0 km/h - -12,4 C -10,8 C 0,0 km/h
Max-Datum _ 05.02.13 10.02.13 04.02.13 05.02.13 05.02.13 - 04.02.13 04.02.13 05.02.13
_ Max-Zeit 03:19 04:19 00:19 20:19 13:19 - 20:19 17:19 13:19
Maximum _ 8,1 C 87 % 1018,2 hPa 1,6 l/m 52,5 km/h
N-NO
- 5,2 C 7,0 C 29,2 km/h
N-NO
Durchschnitt _ 1,0 C 81 % 1009,3 hPa #27,5 l/m 8,6 km/h NW -2,0 C -2,2 C 4,8 km/h
www.sexauwetter.de